Simpson, North Carolina
Current Conditions -  °F | °C
As of 11:30 AM on Saturday 25 Oct 2014 (Local Time) from KPGV Reporting Station
Clear Clear  
Wind Chill: 64°   Ceiling: Unl
Heat Index: 64°   Visibility: 7mi
Dew Point: 45°   Wind: 3mph
Humidity: 49%   Direction: 20°NNE
Pressure: 30.02"   Gusts: NA
Location:  35.58°N, 77.28°W
Report Text: KPGV 251530Z AUTO 02003KT 7SM CLR 18/07 A3002 RMK AO2
Loading
Personal Weather Stations






























Interactive Weather Map
Tropical Storm Tracking
New forecast layout! Learn more

10-Day Weather Forecast

Advertisements
Track Severe Weather on mobile